Hot Springs Village, Arkansas
Current Conditions -  °F | °C
As of 9:53 AM on Saturday 25 Oct 2014 (Local Time) from KHOT Reporting Station
Clear Clear  
Wind Chill: 66°   Ceiling: Unl
Heat Index: 66°   Visibility: 10mi
Dew Point: 60°   Wind: 3mph
Humidity: 81%   Direction: 280°W
Pressure: 30.15"   Gusts: NA
Location:  34.66°N, 93.05°W
Report Text: KHOT 251453Z AUTO 28003KT 10SM CLR 19/16 A3015 RMK AO2 SLP205 T01890156 51008
Loading
Personal Weather Stations






























Interactive Weather Map
Tropical Storm Tracking
New forecast layout! Learn more

10-Day Weather Forecast

Advertisements
Track Severe Weather on mobile